sensor_id;sensor_type;location;lat;lon;timestamp;P1;durP1;ratioP1;P2;durP2;ratioP2
59052;SDS011;44843;44.728;10.396;2024-02-14T00:00:26;22.17;;;10.88;;
59052;SDS011;44843;44.728;10.396;2024-02-14T00:02:51;23.08;;;10.93;;
59052;SDS011;44843;44.728;10.396;2024-02-14T00:05:16;21.48;;;10.23;;
59052;SDS011;44843;44.728;10.396;2024-02-14T00:07:42;24.35;;;11.63;;
59052;SDS011;44843;44.728;10.396;2024-02-14T00:10:07;24.20;;;11.20;;
59052;SDS011;44843;44.728;10.396;2024-02-14T00:12:33;20.55;;;10.90;;
59052;SDS011;44843;44.728;10.396;2024-02-14T00:14:58;20.60;;;9.95;;
59052;SDS011;44843;44.728;10.396;2024-02-14T00:17:24;19.75;;;9.55;;
59052;SDS011;44843;44.728;10.396;2024-02-14T00:19:50;15.50;;;9.13;;
59052;SDS011;44843;44.728;10.396;2024-02-14T00:22:15;20.33;;;9.95;;
59052;SDS011;44843;44.728;10.396;2024-02-14T00:24:41;17.65;;;9.50;;
59052;SDS011;44843;44.728;10.396;2024-02-14T00:27:06;17.25;;;9.70;;
59052;SDS011;44843;44.728;10.396;2024-02-14T00:29:32;18.60;;;9.68;;
59052;SDS011;44843;44.728;10.396;2024-02-14T00:31:59;19.45;;;9.25;;
59052;SDS011;44843;44.728;10.396;2024-02-14T00:34:24;21.73;;;9.55;;
59052;SDS011;44843;44.728;10.396;2024-02-14T00:36:49;18.17;;;10.05;;
59052;SDS011;44843;44.728;10.396;2024-02-14T00:39:14;19.88;;;9.65;;
59052;SDS011;44843;44.728;10.396;2024-02-14T00:41:40;30.23;;;12.98;;
59052;SDS011;44843;44.728;10.396;2024-02-14T00:44:05;31.55;;;13.38;;
59052;SDS011;44843;44.728;10.396;2024-02-14T00:46:30;36.67;;;15.23;;
59052;SDS011;44843;44.728;10.396;2024-02-14T00:48:56;22.23;;;11.52;;
59052;SDS011;44843;44.728;10.396;2024-02-14T00:51:21;26.65;;;11.65;;
59052;SDS011;44843;44.728;10.396;2024-02-14T00:53:46;25.27;;;11.13;;
59052;SDS011;44843;44.728;10.396;2024-02-14T00:56:11;26.90;;;10.77;;
59052;SDS011;44843;44.728;10.396;2024-02-14T00:58:37;26.10;;;12.10;;
59052;SDS011;44843;44.728;10.396;2024-02-14T01:01:02;26.73;;;10.73;;
59052;SDS011;44843;44.728;10.396;2024-02-14T01:03:27;25.35;;;11.00;;
59052;SDS011;44843;44.728;10.396;2024-02-14T01:05:52;19.05;;;8.88;;
59052;SDS011;44843;44.728;10.396;2024-02-14T01:08:18;26.20;;;9.07;;
59052;SDS011;44843;44.728;10.396;2024-02-14T01:10:43;23.08;;;9.15;;
59052;SDS011;44843;44.728;10.396;2024-02-14T01:13:08;18.75;;;8.30;;
59052;SDS011;44843;44.728;10.396;2024-02-14T01:15:33;20.10;;;8.07;;
59052;SDS011;44843;44.728;10.396;2024-02-14T01:17:59;13.60;;;6.43;;
59052;SDS011;44843;44.728;10.396;2024-02-14T01:20:24;14.75;;;6.88;;
59052;SDS011;44843;44.728;10.396;2024-02-14T01:22:49;13.68;;;6.00;;
59052;SDS011;44843;44.728;10.396;2024-02-14T01:25:15;13.52;;;5.38;;
59052;SDS011;44843;44.728;10.396;2024-02-14T01:27:40;9.65;;;4.60;;
59052;SDS011;44843;44.728;10.396;2024-02-14T01:30:06;11.07;;;5.55;;
59052;SDS011;44843;44.728;10.396;2024-02-14T01:32:31;11.57;;;4.65;;
59052;SDS011;44843;44.728;10.396;2024-02-14T01:34:57;7.20;;;4.43;;
59052;SDS011;44843;44.728;10.396;2024-02-14T01:37:22;16.90;;;7.10;;
59052;SDS011;44843;44.728;10.396;2024-02-14T01:39:47;17.02;;;7.22;;
59052;SDS011;44843;44.728;10.396;2024-02-14T01:42:12;17.02;;;7.65;;
59052;SDS011;44843;44.728;10.396;2024-02-14T01:44:37;15.80;;;8.13;;
59052;SDS011;44843;44.728;10.396;2024-02-14T01:47:03;28.33;;;10.77;;
59052;SDS011;44843;44.728;10.396;2024-02-14T01:49:28;30.13;;;13.23;;
59052;SDS011;44843;44.728;10.396;2024-02-14T01:51:55;32.72;;;16.23;;
59052;SDS011;44843;44.728;10.396;2024-02-14T01:54:21;31.88;;;15.50;;
59052;SDS011;44843;44.728;10.396;2024-02-14T01:56:46;32.60;;;14.77;;
59052;SDS011;44843;44.728;10.396;2024-02-14T01:59:12;22.85;;;11.25;;
59052;SDS011;44843;44.728;10.396;2024-02-14T02:01:37;23.05;;;10.57;;
59052;SDS011;44843;44.728;10.396;2024-02-14T02:04:03;16.00;;;8.00;;
59052;SDS011;44843;44.728;10.396;2024-02-14T02:06:28;16.60;;;6.80;;
59052;SDS011;44843;44.728;10.396;2024-02-14T02:08:55;12.38;;;7.13;;
59052;SDS011;44843;44.728;10.396;2024-02-14T02:11:21;14.48;;;6.07;;
59052;SDS011;44843;44.728;10.396;2024-02-14T02:13:47;9.63;;;5.78;;
59052;SDS011;44843;44.728;10.396;2024-02-14T02:16:12;12.55;;;6.38;;
59052;SDS011;44843;44.728;10.396;2024-02-14T02:18:40;8.98;;;5.30;;
59052;SDS011;44843;44.728;10.396;2024-02-14T02:21:05;10.85;;;5.88;;
59052;SDS011;44843;44.728;10.396;2024-02-14T02:23:32;9.73;;;5.43;;
59052;SDS011;44843;44.728;10.396;2024-02-14T02:25:57;8.38;;;5.38;;
59052;SDS011;44843;44.728;10.396;2024-02-14T02:28:22;9.82;;;4.90;;
59052;SDS011;44843;44.728;10.396;2024-02-14T02:30:48;7.95;;;4.78;;
59052;SDS011;44843;44.728;10.396;2024-02-14T02:33:14;12.60;;;5.32;;
59052;SDS011;44843;44.728;10.396;2024-02-14T02:35:41;8.98;;;5.05;;
59052;SDS011;44843;44.728;10.396;2024-02-14T02:38:07;10.55;;;4.63;;
59052;SDS011;44843;44.728;10.396;2024-02-14T02:40:32;11.90;;;5.85;;
59052;SDS011;44843;44.728;10.396;2024-02-14T02:42:57;11.48;;;6.25;;
59052;SDS011;44843;44.728;10.396;2024-02-14T02:45:24;9.50;;;5.40;;
59052;SDS011;44843;44.728;10.396;2024-02-14T02:47:49;12.60;;;6.00;;
59052;SDS011;44843;44.728;10.396;2024-02-14T02:50:16;11.00;;;4.82;;
59052;SDS011;44843;44.728;10.396;2024-02-14T02:52:41;7.93;;;4.47;;
59052;SDS011;44843;44.728;10.396;2024-02-14T02:55:07;10.32;;;4.85;;
59052;SDS011;44843;44.728;10.396;2024-02-14T02:57:32;8.57;;;5.13;;
59052;SDS011;44843;44.728;10.396;2024-02-14T02:59:58;10.77;;;4.60;;
59052;SDS011;44843;44.728;10.396;2024-02-14T03:02:24;9.07;;;4.95;;
59052;SDS011;44843;44.728;10.396;2024-02-14T03:04:50;12.60;;;5.40;;
59052;SDS011;44843;44.728;10.396;2024-02-14T03:07:16;11.95;;;5.38;;
59052;SDS011;44843;44.728;10.396;2024-02-14T03:09:41;11.15;;;5.57;;
59052;SDS011;44843;44.728;10.396;2024-02-14T03:12:06;13.82;;;6.40;;
59052;SDS011;44843;44.728;10.396;2024-02-14T03:14:32;12.80;;;6.28;;
59052;SDS011;44843;44.728;10.396;2024-02-14T03:17:01;10.32;;;6.15;;
59052;SDS011;44843;44.728;10.396;2024-02-14T03:19:26;11.68;;;6.20;;
59052;SDS011;44843;44.728;10.396;2024-02-14T03:21:52;14.38;;;6.60;;
59052;SDS011;44843;44.728;10.396;2024-02-14T03:24:17;14.48;;;7.15;;
59052;SDS011;44843;44.728;10.396;2024-02-14T03:26:43;11.88;;;6.18;;
59052;SDS011;44843;44.728;10.396;2024-02-14T03:29:08;10.63;;;5.60;;
59052;SDS011;44843;44.728;10.396;2024-02-14T03:31:33;10.00;;;4.93;;
59052;SDS011;44843;44.728;10.396;2024-02-14T03:33:59;11.88;;;5.25;;
59052;SDS011;44843;44.728;10.396;2024-02-14T03:36:24;15.05;;;6.03;;
59052;SDS011;44843;44.728;10.396;2024-02-14T03:38:53;13.15;;;6.07;;
59052;SDS011;44843;44.728;10.396;2024-02-14T03:41:18;9.85;;;5.82;;
59052;SDS011;44843;44.728;10.396;2024-02-14T03:43:43;10.63;;;5.97;;
59052;SDS011;44843;44.728;10.396;2024-02-14T03:46:08;13.48;;;6.57;;
59052;SDS011;44843;44.728;10.396;2024-02-14T03:48:34;14.75;;;6.65;;
59052;SDS011;44843;44.728;10.396;2024-02-14T03:51:00;17.02;;;7.80;;
59052;SDS011;44843;44.728;10.396;2024-02-14T03:53:25;16.75;;;8.10;;
59052;SDS011;44843;44.728;10.396;2024-02-14T03:55:51;21.05;;;9.35;;
59052;SDS011;44843;44.728;10.396;2024-02-14T03:58:18;19.45;;;8.35;;
59052;SDS011;44843;44.728;10.396;2024-02-14T04:00:49;15.52;;;7.78;;
59052;SDS011;44843;44.728;10.396;2024-02-14T04:03:15;14.52;;;7.35;;
59052;SDS011;44843;44.728;10.396;2024-02-14T04:05:40;12.45;;;7.38;;
59052;SDS011;44843;44.728;10.396;2024-02-14T04:08:06;17.40;;;7.80;;
59052;SDS011;44843;44.728;10.396;2024-02-14T04:10:37;12.35;;;7.55;;
59052;SDS011;44843;44.728;10.396;2024-02-14T04:13:03;18.08;;;6.82;;
59052;SDS011;44843;44.728;10.396;2024-02-14T04:15:29;14.35;;;5.97;;
59052;SDS011;44843;44.728;10.396;2024-02-14T04:17:54;11.23;;;5.95;;
59052;SDS011;44843;44.728;10.396;2024-02-14T04:20:19;11.05;;;5.22;;
59052;SDS011;44843;44.728;10.396;2024-02-14T04:22:44;10.93;;;5.05;;
59052;SDS011;44843;44.728;10.396;2024-02-14T04:25:10;12.13;;;4.88;;
59052;SDS011;44843;44.728;10.396;2024-02-14T04:27:35;10.60;;;6.25;;
59052;SDS011;44843;44.728;10.396;2024-02-14T04:30:01;12.88;;;5.80;;
59052;SDS011;44843;44.728;10.396;2024-02-14T04:32:26;13.43;;;5.95;;
59052;SDS011;44843;44.728;10.396;2024-02-14T04:34:52;13.75;;;6.35;;
59052;SDS011;44843;44.728;10.396;2024-02-14T04:37:18;14.38;;;7.05;;
59052;SDS011;44843;44.728;10.396;2024-02-14T04:39:44;23.17;;;7.57;;
59052;SDS011;44843;44.728;10.396;2024-02-14T04:42:09;18.10;;;7.00;;
59052;SDS011;44843;44.728;10.396;2024-02-14T04:44:34;15.40;;;6.68;;
59052;SDS011;44843;44.728;10.396;2024-02-14T04:46:59;20.65;;;5.88;;
59052;SDS011;44843;44.728;10.396;2024-02-14T04:49:25;16.63;;;6.50;;
59052;SDS011;44843;44.728;10.396;2024-02-14T04:51:51;21.48;;;6.90;;
59052;SDS011;44843;44.728;10.396;2024-02-14T04:54:16;16.85;;;5.93;;
59052;SDS011;44843;44.728;10.396;2024-02-14T04:56:41;14.88;;;5.82;;
59052;SDS011;44843;44.728;10.396;2024-02-14T04:59:07;14.40;;;5.93;;
59052;SDS011;44843;44.728;10.396;2024-02-14T05:01:33;16.48;;;6.22;;
59052;SDS011;44843;44.728;10.396;2024-02-14T05:03:58;18.63;;;6.10;;
59052;SDS011;44843;44.728;10.396;2024-02-14T05:06:24;14.23;;;5.65;;
59052;SDS011;44843;44.728;10.396;2024-02-14T05:08:49;11.75;;;6.35;;
59052;SDS011;44843;44.728;10.396;2024-02-14T05:11:16;15.50;;;6.75;;
59052;SDS011;44843;44.728;10.396;2024-02-14T05:13:41;14.32;;;6.25;;
59052;SDS011;44843;44.728;10.396;2024-02-14T05:16:06;14.20;;;6.13;;
59052;SDS011;44843;44.728;10.396;2024-02-14T05:18:35;9.07;;;5.18;;
59052;SDS011;44843;44.728;10.396;2024-02-14T05:21:00;16.30;;;5.40;;
59052;SDS011;44843;44.728;10.396;2024-02-14T05:23:26;15.27;;;5.50;;
59052;SDS011;44843;44.728;10.396;2024-02-14T05:25:51;11.73;;;5.30;;
59052;SDS011;44843;44.728;10.396;2024-02-14T05:28:18;12.75;;;5.18;;
59052;SDS011;44843;44.728;10.396;2024-02-14T05:30:43;11.38;;;5.75;;
59052;SDS011;44843;44.728;10.396;2024-02-14T05:33:09;10.80;;;4.80;;
59052;SDS011;44843;44.728;10.396;2024-02-14T05:35:35;12.85;;;4.75;;
59052;SDS011;44843;44.728;10.396;2024-02-14T05:38:01;12.52;;;4.07;;
59052;SDS011;44843;44.728;10.396;2024-02-14T05:40:26;10.20;;;3.58;;
59052;SDS011;44843;44.728;10.396;2024-02-14T05:42:51;6.07;;;3.42;;
59052;SDS011;44843;44.728;10.396;2024-02-14T05:45:16;3.45;;;2.10;;
59052;SDS011;44843;44.728;10.396;2024-02-14T05:47:42;3.88;;;2.40;;
59052;SDS011;44843;44.728;10.396;2024-02-14T05:50:08;6.15;;;2.95;;
59052;SDS011;44843;44.728;10.396;2024-02-14T05:52:37;3.15;;;2.33;;
59052;SDS011;44843;44.728;10.396;2024-02-14T05:55:02;4.57;;;2.90;;
59052;SDS011;44843;44.728;10.396;2024-02-14T05:57:28;7.72;;;2.78;;
59052;SDS011;44843;44.728;10.396;2024-02-14T05:59:53;3.78;;;2.28;;
59052;SDS011;44843;44.728;10.396;2024-02-14T06:02:18;6.45;;;3.55;;
59052;SDS011;44843;44.728;10.396;2024-02-14T06:04:44;5.78;;;3.03;;
59052;SDS011;44843;44.728;10.396;2024-02-14T06:07:09;5.35;;;3.42;;
59052;SDS011;44843;44.728;10.396;2024-02-14T06:09:36;8.88;;;3.20;;
59052;SDS011;44843;44.728;10.396;2024-02-14T06:12:01;4.88;;;3.20;;
59052;SDS011;44843;44.728;10.396;2024-02-14T06:14:27;7.13;;;3.17;;
59052;SDS011;44843;44.728;10.396;2024-02-14T06:16:53;9.60;;;4.15;;
59052;SDS011;44843;44.728;10.396;2024-02-14T06:19:19;8.52;;;3.30;;
59052;SDS011;44843;44.728;10.396;2024-02-14T06:21:44;7.32;;;2.70;;
59052;SDS011;44843;44.728;10.396;2024-02-14T06:24:09;4.40;;;2.63;;
59052;SDS011;44843;44.728;10.396;2024-02-14T06:26:38;6.43;;;2.85;;
59052;SDS011;44843;44.728;10.396;2024-02-14T06:29:03;4.65;;;2.47;;
59052;SDS011;44843;44.728;10.396;2024-02-14T06:31:28;3.67;;;2.45;;
59052;SDS011;44843;44.728;10.396;2024-02-14T06:33:53;4.95;;;2.58;;
59052;SDS011;44843;44.728;10.396;2024-02-14T06:36:19;5.25;;;2.72;;
59052;SDS011;44843;44.728;10.396;2024-02-14T06:38:44;4.35;;;2.45;;
59052;SDS011;44843;44.728;10.396;2024-02-14T06:41:11;3.72;;;2.40;;
59052;SDS011;44843;44.728;10.396;2024-02-14T06:43:36;5.88;;;4.00;;
59052;SDS011;44843;44.728;10.396;2024-02-14T06:46:03;5.20;;;3.20;;
59052;SDS011;44843;44.728;10.396;2024-02-14T06:48:29;5.18;;;2.95;;
59052;SDS011;44843;44.728;10.396;2024-02-14T06:50:54;7.68;;;2.40;;
59052;SDS011;44843;44.728;10.396;2024-02-14T06:53:19;6.30;;;2.45;;
59052;SDS011;44843;44.728;10.396;2024-02-14T06:55:44;7.35;;;3.10;;
59052;SDS011;44843;44.728;10.396;2024-02-14T06:58:10;5.28;;;2.92;;
59052;SDS011;44843;44.728;10.396;2024-02-14T07:00:35;5.30;;;2.45;;
59052;SDS011;44843;44.728;10.396;2024-02-14T07:03:00;10.75;;;3.58;;
59052;SDS011;44843;44.728;10.396;2024-02-14T07:05:26;11.93;;;3.33;;
59052;SDS011;44843;44.728;10.396;2024-02-14T07:07:52;9.50;;;3.40;;
59052;SDS011;44843;44.728;10.396;2024-02-14T07:10:18;8.88;;;3.42;;
59052;SDS011;44843;44.728;10.396;2024-02-14T07:12:43;7.05;;;3.65;;
59052;SDS011;44843;44.728;10.396;2024-02-14T07:15:08;10.65;;;3.67;;
59052;SDS011;44843;44.728;10.396;2024-02-14T07:17:33;8.32;;;2.97;;
59052;SDS011;44843;44.728;10.396;2024-02-14T07:19:59;4.60;;;2.47;;
59052;SDS011;44843;44.728;10.396;2024-02-14T07:22:24;7.00;;;2.65;;
59052;SDS011;44843;44.728;10.396;2024-02-14T07:24:49;3.60;;;2.40;;
59052;SDS011;44843;44.728;10.396;2024-02-14T07:27:14;3.72;;;1.92;;
59052;SDS011;44843;44.728;10.396;2024-02-14T07:29:40;5.85;;;2.22;;
59052;SDS011;44843;44.728;10.396;2024-02-14T07:32:05;7.40;;;2.47;;
59052;SDS011;44843;44.728;10.396;2024-02-14T07:34:31;8.13;;;2.47;;
59052;SDS011;44843;44.728;10.396;2024-02-14T07:36:57;6.97;;;2.47;;
59052;SDS011;44843;44.728;10.396;2024-02-14T07:39:22;4.38;;;2.38;;
59052;SDS011;44843;44.728;10.396;2024-02-14T07:41:47;6.07;;;2.75;;
59052;SDS011;44843;44.728;10.396;2024-02-14T07:44:12;4.97;;;2.50;;
59052;SDS011;44843;44.728;10.396;2024-02-14T07:46:38;5.38;;;2.88;;
59052;SDS011;44843;44.728;10.396;2024-02-14T07:49:03;5.80;;;2.70;;
59052;SDS011;44843;44.728;10.396;2024-02-14T07:51:29;6.70;;;2.58;;
59052;SDS011;44843;44.728;10.396;2024-02-14T07:53:58;9.02;;;2.85;;
59052;SDS011;44843;44.728;10.396;2024-02-14T07:56:24;4.63;;;2.83;;
59052;SDS011;44843;44.728;10.396;2024-02-14T07:58:49;5.38;;;2.45;;
59052;SDS011;44843;44.728;10.396;2024-02-14T08:01:15;8.60;;;3.30;;
59052;SDS011;44843;44.728;10.396;2024-02-14T08:03:40;5.07;;;2.75;;
59052;SDS011;44843;44.728;10.396;2024-02-14T08:06:05;5.93;;;2.83;;
59052;SDS011;44843;44.728;10.396;2024-02-14T08:08:30;6.60;;;3.00;;
59052;SDS011;44843;44.728;10.396;2024-02-14T08:10:56;7.07;;;3.28;;
59052;SDS011;44843;44.728;10.396;2024-02-14T08:13:21;7.30;;;4.28;;
59052;SDS011;44843;44.728;10.396;2024-02-14T08:15:46;7.25;;;3.95;;
59052;SDS011;44843;44.728;10.396;2024-02-14T08:18:12;7.05;;;4.68;;
59052;SDS011;44843;44.728;10.396;2024-02-14T08:20:37;7.90;;;4.10;;
59052;SDS011;44843;44.728;10.396;2024-02-14T08:23:02;7.82;;;4.35;;
59052;SDS011;44843;44.728;10.396;2024-02-14T08:25:28;8.98;;;4.78;;
59052;SDS011;44843;44.728;10.396;2024-02-14T08:27:53;9.55;;;4.50;;
59052;SDS011;44843;44.728;10.396;2024-02-14T08:30:18;11.07;;;5.35;;
59052;SDS011;44843;44.728;10.396;2024-02-14T08:32:44;7.82;;;5.13;;
59052;SDS011;44843;44.728;10.396;2024-02-14T08:35:09;13.48;;;5.68;;
59052;SDS011;44843;44.728;10.396;2024-02-14T08:37:35;9.88;;;5.72;;
59052;SDS011;44843;44.728;10.396;2024-02-14T08:40:02;11.90;;;5.20;;
59052;SDS011;44843;44.728;10.396;2024-02-14T08:42:30;9.48;;;4.80;;
59052;SDS011;44843;44.728;10.396;2024-02-14T08:44:56;9.57;;;5.18;;
59052;SDS011;44843;44.728;10.396;2024-02-14T08:47:21;11.50;;;5.90;;
59052;SDS011;44843;44.728;10.396;2024-02-14T08:49:46;7.90;;;3.63;;
59052;SDS011;44843;44.728;10.396;2024-02-14T08:52:12;8.85;;;4.50;;
59052;SDS011;44843;44.728;10.396;2024-02-14T08:54:37;8.98;;;5.28;;
59052;SDS011;44843;44.728;10.396;2024-02-14T08:57:02;10.90;;;4.90;;
59052;SDS011;44843;44.728;10.396;2024-02-14T08:59:27;9.23;;;5.15;;
59052;SDS011;44843;44.728;10.396;2024-02-14T09:01:53;9.77;;;4.97;;
59052;SDS011;44843;44.728;10.396;2024-02-14T09:04:18;10.73;;;5.30;;
59052;SDS011;44843;44.728;10.396;2024-02-14T09:06:43;10.80;;;4.63;;
59052;SDS011;44843;44.728;10.396;2024-02-14T09:09:09;9.27;;;5.07;;
59052;SDS011;44843;44.728;10.396;2024-02-14T09:11:35;12.10;;;5.03;;
59052;SDS011;44843;44.728;10.396;2024-02-14T09:14:00;9.65;;;5.35;;
59052;SDS011;44843;44.728;10.396;2024-02-14T09:16:31;9.13;;;4.95;;
59052;SDS011;44843;44.728;10.396;2024-02-14T09:18:56;11.35;;;5.13;;
59052;SDS011;44843;44.728;10.396;2024-02-14T09:21:22;8.27;;;4.82;;
59052;SDS011;44843;44.728;10.396;2024-02-14T09:23:48;7.03;;;4.90;;
59052;SDS011;44843;44.728;10.396;2024-02-14T09:26:13;8.55;;;4.70;;
59052;SDS011;44843;44.728;10.396;2024-02-14T09:28:41;9.75;;;4.68;;
59052;SDS011;44843;44.728;10.396;2024-02-14T09:31:06;10.82;;;4.85;;
59052;SDS011;44843;44.728;10.396;2024-02-14T09:33:34;8.18;;;4.50;;
59052;SDS011;44843;44.728;10.396;2024-02-14T09:36:00;7.63;;;4.40;;
59052;SDS011;44843;44.728;10.396;2024-02-14T09:38:25;8.48;;;4.30;;
59052;SDS011;44843;44.728;10.396;2024-02-14T09:40:50;7.90;;;4.68;;
59052;SDS011;44843;44.728;10.396;2024-02-14T09:43:28;12.35;;;4.65;;
59052;SDS011;44843;44.728;10.396;2024-02-14T09:45:57;8.82;;;4.78;;
59052;SDS011;44843;44.728;10.396;2024-02-14T09:48:22;10.00;;;4.53;;
59052;SDS011;44843;44.728;10.396;2024-02-14T09:50:48;9.40;;;4.53;;
59052;SDS011;44843;44.728;10.396;2024-02-14T09:53:13;7.90;;;4.50;;
59052;SDS011;44843;44.728;10.396;2024-02-14T09:55:39;8.45;;;4.75;;
59052;SDS011;44843;44.728;10.396;2024-02-14T09:58:06;7.97;;;4.65;;
59052;SDS011;44843;44.728;10.396;2024-02-14T10:00:31;9.07;;;4.93;;
59052;SDS011;44843;44.728;10.396;2024-02-14T10:02:57;7.47;;;4.68;;
59052;SDS011;44843;44.728;10.396;2024-02-14T10:05:22;7.63;;;5.07;;
59052;SDS011;44843;44.728;10.396;2024-02-14T10:07:47;8.73;;;4.85;;
59052;SDS011;44843;44.728;10.396;2024-02-14T10:10:13;8.55;;;4.80;;
59052;SDS011;44843;44.728;10.396;2024-02-14T10:12:39;9.48;;;4.95;;
59052;SDS011;44843;44.728;10.396;2024-02-14T10:15:06;10.23;;;5.00;;
59052;SDS011;44843;44.728;10.396;2024-02-14T10:17:34;7.18;;;4.78;;
59052;SDS011;44843;44.728;10.396;2024-02-14T10:20:00;9.48;;;5.10;;
59052;SDS011;44843;44.728;10.396;2024-02-14T10:22:37;9.98;;;5.63;;
59052;SDS011;44843;44.728;10.396;2024-02-14T10:25:05;10.20;;;5.75;;
59052;SDS011;44843;44.728;10.396;2024-02-14T10:27:37;9.20;;;5.63;;
59052;SDS011;44843;44.728;10.396;2024-02-14T10:30:04;11.15;;;5.63;;
59052;SDS011;44843;44.728;10.396;2024-02-14T10:32:29;10.88;;;5.57;;
59052;SDS011;44843;44.728;10.396;2024-02-14T10:34:55;10.50;;;6.03;;
59052;SDS011;44843;44.728;10.396;2024-02-14T10:37:20;9.60;;;5.63;;
59052;SDS011;44843;44.728;10.396;2024-02-14T10:39:46;11.48;;;6.22;;
59052;SDS011;44843;44.728;10.396;2024-02-14T10:42:12;9.77;;;6.00;;
59052;SDS011;44843;44.728;10.396;2024-02-14T10:44:37;17.20;;;7.82;;
59052;SDS011;44843;44.728;10.396;2024-02-14T10:47:03;12.18;;;6.40;;
59052;SDS011;44843;44.728;10.396;2024-02-14T10:49:32;11.32;;;7.10;;
59052;SDS011;44843;44.728;10.396;2024-02-14T10:51:58;10.25;;;6.57;;
59052;SDS011;44843;44.728;10.396;2024-02-14T10:54:25;13.63;;;7.35;;
59052;SDS011;44843;44.728;10.396;2024-02-14T10:56:51;13.45;;;6.90;;
59052;SDS011;44843;44.728;10.396;2024-02-14T10:59:18;15.55;;;7.45;;
59052;SDS011;44843;44.728;10.396;2024-02-14T11:01:45;15.00;;;7.32;;
59052;SDS011;44843;44.728;10.396;2024-02-14T11:04:11;18.85;;;7.82;;
59052;SDS011;44843;44.728;10.396;2024-02-14T11:06:54;16.27;;;8.20;;
59052;SDS011;44843;44.728;10.396;2024-02-14T11:09:22;15.35;;;8.15;;
59052;SDS011;44843;44.728;10.396;2024-02-14T11:11:47;18.33;;;9.18;;
59052;SDS011;44843;44.728;10.396;2024-02-14T11:14:15;16.80;;;9.10;;
59052;SDS011;44843;44.728;10.396;2024-02-14T11:16:41;16.88;;;8.52;;
59052;SDS011;44843;44.728;10.396;2024-02-14T11:19:11;16.27;;;9.57;;
59052;SDS011;44843;44.728;10.396;2024-02-14T11:21:46;21.00;;;10.90;;
59052;SDS011;44843;44.728;10.396;2024-02-14T11:24:14;18.83;;;10.57;;
59052;SDS011;44843;44.728;10.396;2024-02-14T11:26:51;18.88;;;10.20;;
59052;SDS011;44843;44.728;10.396;2024-02-14T11:29:20;17.55;;;9.38;;
59052;SDS011;44843;44.728;10.396;2024-02-14T11:31:45;18.33;;;9.70;;
59052;SDS011;44843;44.728;10.396;2024-02-14T11:34:13;16.27;;;8.77;;
59052;SDS011;44843;44.728;10.396;2024-02-14T11:36:39;13.90;;;7.85;;
59052;SDS011;44843;44.728;10.396;2024-02-14T11:39:06;13.70;;;8.20;;
59052;SDS011;44843;44.728;10.396;2024-02-14T11:41:34;16.10;;;7.45;;
59052;SDS011;44843;44.728;10.396;2024-02-14T11:44:06;14.88;;;7.10;;
59052;SDS011;44843;44.728;10.396;2024-02-14T11:46:32;15.90;;;8.25;;
59052;SDS011;44843;44.728;10.396;2024-02-14T11:48:58;16.58;;;8.45;;
59052;SDS011;44843;44.728;10.396;2024-02-14T11:51:23;17.15;;;8.80;;
59052;SDS011;44843;44.728;10.396;2024-02-14T11:53:48;16.20;;;8.95;;
59052;SDS011;44843;44.728;10.396;2024-02-14T11:56:14;19.40;;;8.82;;
59052;SDS011;44843;44.728;10.396;2024-02-14T11:58:39;15.32;;;8.07;;
59052;SDS011;44843;44.728;10.396;2024-02-14T12:01:04;14.40;;;8.45;;
59052;SDS011;44843;44.728;10.396;2024-02-14T12:03:30;14.98;;;7.43;;
59052;SDS011;44843;44.728;10.396;2024-02-14T12:05:56;11.48;;;6.75;;
59052;SDS011;44843;44.728;10.396;2024-02-14T12:08:22;15.30;;;6.95;;
59052;SDS011;44843;44.728;10.396;2024-02-14T12:10:47;15.00;;;7.85;;
59052;SDS011;44843;44.728;10.396;2024-02-14T12:13:14;11.93;;;6.25;;
59052;SDS011;44843;44.728;10.396;2024-02-14T12:15:41;17.00;;;7.78;;
59052;SDS011;44843;44.728;10.396;2024-02-14T12:18:07;13.23;;;6.75;;
59052;SDS011;44843;44.728;10.396;2024-02-14T12:20:33;13.85;;;7.53;;
59052;SDS011;44843;44.728;10.396;2024-02-14T12:22:59;13.60;;;6.80;;
59052;SDS011;44843;44.728;10.396;2024-02-14T12:25:24;12.57;;;6.13;;
59052;SDS011;44843;44.728;10.396;2024-02-14T12:27:50;16.42;;;7.63;;
59052;SDS011;44843;44.728;10.396;2024-02-14T12:30:16;13.60;;;6.60;;
59052;SDS011;44843;44.728;10.396;2024-02-14T12:32:42;12.88;;;6.85;;
59052;SDS011;44843;44.728;10.396;2024-02-14T12:35:07;12.30;;;6.32;;
59052;SDS011;44843;44.728;10.396;2024-02-14T12:37:32;13.65;;;7.65;;
59052;SDS011;44843;44.728;10.396;2024-02-14T12:39:57;13.93;;;7.32;;
59052;SDS011;44843;44.728;10.396;2024-02-14T12:42:23;17.95;;;9.02;;
59052;SDS011;44843;44.728;10.396;2024-02-14T12:44:50;15.23;;;7.65;;
59052;SDS011;44843;44.728;10.396;2024-02-14T12:47:15;16.67;;;8.38;;
59052;SDS011;44843;44.728;10.396;2024-02-14T12:49:40;12.52;;;7.57;;
59052;SDS011;44843;44.728;10.396;2024-02-14T12:52:06;13.32;;;8.05;;
59052;SDS011;44843;44.728;10.396;2024-02-14T12:54:31;17.77;;;7.82;;
59052;SDS011;44843;44.728;10.396;2024-02-14T12:56:56;17.63;;;8.40;;
59052;SDS011;44843;44.728;10.396;2024-02-14T12:59:21;15.70;;;7.68;;
59052;SDS011;44843;44.728;10.396;2024-02-14T13:01:47;16.27;;;8.32;;
59052;SDS011;44843;44.728;10.396;2024-02-14T13:04:12;20.50;;;9.38;;
59052;SDS011;44843;44.728;10.396;2024-02-14T13:06:39;14.75;;;9.05;;
59052;SDS011;44843;44.728;10.396;2024-02-14T13:09:04;17.85;;;9.85;;
59052;SDS011;44843;44.728;10.396;2024-02-14T13:11:31;20.02;;;9.50;;
59052;SDS011;44843;44.728;10.396;2024-02-14T13:13:56;21.17;;;9.73;;
59052;SDS011;44843;44.728;10.396;2024-02-14T13:16:22;17.88;;;10.57;;
59052;SDS011;44843;44.728;10.396;2024-02-14T13:18:47;19.65;;;9.95;;
59052;SDS011;44843;44.728;10.396;2024-02-14T13:21:12;16.88;;;9.15;;
59052;SDS011;44843;44.728;10.396;2024-02-14T13:23:38;18.23;;;8.73;;
59052;SDS011;44843;44.728;10.396;2024-02-14T13:26:04;18.10;;;9.60;;
59052;SDS011;44843;44.728;10.396;2024-02-14T13:28:30;18.85;;;9.30;;
59052;SDS011;44843;44.728;10.396;2024-02-14T13:30:55;16.67;;;9.55;;
59052;SDS011;44843;44.728;10.396;2024-02-14T13:33:20;14.18;;;7.45;;
59052;SDS011;44843;44.728;10.396;2024-02-14T13:35:45;14.52;;;6.13;;
59052;SDS011;44843;44.728;10.396;2024-02-14T13:38:11;12.70;;;6.22;;
59052;SDS011;44843;44.728;10.396;2024-02-14T13:40:36;19.02;;;9.63;;
59052;SDS011;44843;44.728;10.396;2024-02-14T13:43:01;17.02;;;9.50;;
59052;SDS011;44843;44.728;10.396;2024-02-14T13:45:26;18.08;;;9.80;;
59052;SDS011;44843;44.728;10.396;2024-02-14T13:48:03;20.63;;;10.68;;
59052;SDS011;44843;44.728;10.396;2024-02-14T13:50:32;18.65;;;9.85;;
59052;SDS011;44843;44.728;10.396;2024-02-14T13:52:57;19.33;;;9.57;;
59052;SDS011;44843;44.728;10.396;2024-02-14T13:55:23;21.40;;;11.05;;
59052;SDS011;44843;44.728;10.396;2024-02-14T13:57:49;19.55;;;11.25;;
59052;SDS011;44843;44.728;10.396;2024-02-14T14:00:15;24.60;;;11.27;;
59052;SDS011;44843;44.728;10.396;2024-02-14T14:02:40;19.50;;;10.93;;
59052;SDS011;44843;44.728;10.396;2024-02-14T14:05:09;24.48;;;11.35;;
59052;SDS011;44843;44.728;10.396;2024-02-14T14:07:35;19.95;;;10.45;;
59052;SDS011;44843;44.728;10.396;2024-02-14T14:10:01;17.73;;;9.90;;
59052;SDS011;44843;44.728;10.396;2024-02-14T14:12:26;17.83;;;10.43;;
59052;SDS011;44843;44.728;10.396;2024-02-14T14:14:52;21.05;;;9.95;;